Time;durP1;ratioP1;P1;durP2;ratioP2;P2;SDS_P1;SDS_P2;PMS_P1;PMS_P2;Temp;Humidity;BMP_temperature;BMP_pressure;BME280_temperature;BME280_humidity;BME280_pressure;Samples;Min_cycle;Max_cycle;Signal;HPM_P1;HPM_P2
2023/07/14 00:01:57;;;;;;;2.22;2.05;;;19.40;57.40;;;;;;4913474;29;20040;-52
2023/07/14 00:04:33;;;;;;;2.65;2.45;;;19.40;57.70;;;;;;4914611;29;20425;-53
2023/07/14 00:07:09;;;;;;;2.00;1.73;;;19.30;58.20;;;;;;4913633;29;20127;-53
2023/07/14 00:09:42;;;;;;;2.33;2.03;;;19.30;57.70;;;;;;4915075;29;20116;-52
2023/07/14 00:12:11;;;;;;;2.17;1.88;;;19.30;57.60;;;;;;4915247;29;20044;-54
2023/07/14 00:14:40;;;;;;;3.75;1.85;;;19.20;57.70;;;;;;4913433;29;20560;-50
2023/07/14 00:17:11;;;;;;;2.45;2.25;;;19.20;57.70;;;;;;4913024;29;20075;-49
2023/07/14 00:19:39;;;;;;;2.15;1.95;;;19.10;58.10;;;;;;4913314;29;20075;-54
2023/07/14 00:22:12;;;;;;;3.80;1.85;;;19.10;57.80;;;;;;4916258;29;20051;-54
2023/07/14 00:24:42;;;;;;;6.28;2.33;;;19.00;58.20;;;;;;4913704;29;20063;-50
2023/07/14 00:27:28;;;;;;;2.45;2.25;;;19.00;57.90;;;;;;4927307;29;20043;-49
2023/07/14 00:29:59;;;;;;;3.03;2.17;;;18.90;58.30;;;;;;4914060;29;20032;-53
2023/07/14 00:32:33;;;;;;;5.28;2.00;;;18.90;57.70;;;;;;4912915;29;20517;-52
2023/07/14 00:35:20;;;;;;;2.30;2.10;;;18.80;57.70;;;;;;4895631;29;20055;-53
2023/07/14 00:37:53;;;;;;;2.45;2.25;;;18.80;58.30;;;;;;4901816;29;20048;-53
2023/07/14 00:40:37;;;;;;;4.50;2.17;;;18.80;57.80;;;;;;4896139;29;20084;-52
2023/07/14 00:43:18;;;;;;;2.17;1.88;;;18.70;58.40;;;;;;4913574;29;20588;-49
2023/07/14 00:45:49;;;;;;;2.67;2.40;;;18.70;58.30;;;;;;4896005;29;20052;-51
2023/07/14 00:48:26;;;;;;;2.88;1.98;;;18.60;58.20;;;;;;4923330;29;20043;-53
2023/07/14 00:51:13;;;;;;;3.17;2.05;;;18.60;58.40;;;;;;4899227;29;20051;-49
2023/07/14 00:53:45;;;;;;;2.28;1.83;;;18.60;58.90;;;;;;4912434;29;20060;-49
2023/07/14 00:56:14;;;;;;;1.80;1.67;;;18.50;58.40;;;;;;4895346;29;20145;-52
2023/07/14 00:58:49;;;;;;;2.08;1.85;;;18.50;58.40;;;;;;4896002;29;20064;-50
2023/07/14 01:01:25;;;;;;;2.03;1.85;;;18.50;58.50;;;;;;4912617;29;20052;-50
2023/07/14 01:03:58;;;;;;;2.75;1.83;;;18.40;58.50;;;;;;4918290;29;20103;-51
2023/07/14 01:06:39;;;;;;;2.92;1.92;;;18.40;58.50;;;;;;4912482;29;20155;-54
2023/07/14 01:09:12;;;;;;;3.03;2.05;;;18.40;58.80;;;;;;4903718;29;20104;-52
2023/07/14 01:11:48;;;;;;;2.33;2.13;;;18.30;59.20;;;;;;4914259;29;20075;-50
2023/07/14 01:14:23;;;;;;;2.20;2.00;;;18.30;58.80;;;;;;4896900;29;20058;-52
2023/07/14 01:16:56;;;;;;;2.55;2.20;;;18.30;58.80;;;;;;4913838;29;20095;-53
2023/07/14 01:19:26;;;;;;;3.30;2.17;;;18.30;58.80;;;;;;4912745;29;20082;-53
2023/07/14 01:22:04;;;;;;;3.47;2.13;;;18.20;58.90;;;;;;4913215;29;20085;-53
2023/07/14 01:24:37;;;;;;;2.75;2.42;;;18.20;59.20;;;;;;4901831;29;20052;-51
2023/07/14 01:27:08;;;;;;;7.15;2.03;;;18.20;59.10;;;;;;4909888;29;20130;-51
2023/07/14 01:29:37;;;;;;;2.35;2.15;;;18.20;59.40;;;;;;4896013;29;20060;-53
2023/07/14 01:32:15;;;;;;;4.55;2.47;;;18.20;60.00;;;;;;4914717;29;20083;-51
2023/07/14 01:34:46;;;;;;;3.05;2.75;;;18.20;61.20;;;;;;4896399;29;20080;-52
2023/07/14 01:37:16;;;;;;;3.78;3.05;;;18.20;60.90;;;;;;4895639;29;20052;-53
2023/07/14 01:39:43;;;;;;;4.20;2.90;;;18.30;61.70;;;;;;4912071;29;20214;-49
2023/07/14 01:42:13;;;;;;;3.25;2.92;;;18.30;61.90;;;;;;4914359;29;20544;-51
2023/07/14 01:44:44;;;;;;;2.70;2.50;;;18.40;62.20;;;;;;4896268;29;20040;-52
2023/07/14 01:47:13;;;;;;;3.30;2.55;;;18.40;62.60;;;;;;4911925;29;20044;-52
2023/07/14 01:49:45;;;;;;;4.35;3.25;;;18.40;62.20;;;;;;4914431;29;20037;-52
2023/07/14 01:52:20;;;;;;;2.85;2.65;;;18.50;62.60;;;;;;4895700;29;20473;-50
2023/07/14 01:54:59;;;;;;;3.65;2.97;;;18.60;62.70;;;;;;4915624;29;20470;-49
2023/07/14 01:57:29;;;;;;;3.95;3.40;;;18.60;62.60;;;;;;4915919;29;20048;-52
2023/07/14 02:00:04;;;;;;;6.17;3.57;;;18.70;62.50;;;;;;4907616;29;20875;-50
2023/07/14 02:02:40;;;;;;;;;;;18.80;62.60;;;;;;4929065;29;20052;-52
2023/07/14 02:05:14;;;;;;;2.70;2.50;;;18.90;61.90;;;;;;4916257;29;20030;-53
2023/07/14 02:07:41;;;;;;;3.13;2.92;;;18.90;62.10;;;;;;4898039;29;20051;-53
2023/07/14 02:10:19;;;;;;;3.17;2.88;;;18.90;61.70;;;;;;4901874;29;20040;-53
2023/07/14 02:12:49;;;;;;;2.80;2.60;;;18.90;62.50;;;;;;4900983;29;20095;-50
2023/07/14 02:15:25;;;;;;;4.32;2.95;;;18.90;61.80;;;;;;4898922;29;20048;-53
2023/07/14 02:17:54;;;;;;;2.60;2.33;;;18.90;61.90;;;;;;4898564;29;20040;-52
2023/07/14 02:20:29;;;;;;;3.88;3.10;;;18.90;61.80;;;;;;4901808;29;20051;-52
2023/07/14 02:23:01;;;;;;;3.92;3.28;;;18.90;61.90;;;;;;4897864;29;20154;-53
2023/07/14 02:25:35;;;;;;;3.72;2.63;;;18.90;61.90;;;;;;4897903;29;20056;-51
2023/07/14 02:28:05;;;;;;;3.58;2.42;;;18.90;62.00;;;;;;4917749;29;20032;-53
2023/07/14 02:30:35;;;;;;;2.45;2.25;;;18.90;61.60;;;;;;4914917;29;20170;-49
2023/07/14 02:33:13;;;;;;;5.90;3.00;;;18.90;61.80;;;;;;4898313;29;20104;-51
2023/07/14 02:36:10;;;;;;;4.70;2.90;;;18.90;61.80;;;;;;4915765;29;20103;-51
2023/07/14 02:38:42;;;;;;;3.50;3.20;;;18.90;62.10;;;;;;4914972;29;20040;-52
2023/07/14 02:41:26;;;;;;;3.88;3.50;;;18.90;61.60;;;;;;4896806;29;20067;-52
2023/07/14 02:43:57;;;;;;;4.97;3.30;;;18.90;62.00;;;;;;4898869;29;20040;-52
2023/07/14 02:46:33;;;;;;;4.35;3.17;;;18.90;61.90;;;;;;4897402;29;20082;-52
2023/07/14 02:49:00;;;;;;;3.58;3.20;;;18.90;62.40;;;;;;4917936;29;20115;-53
2023/07/14 02:51:26;;;;;;;3.20;3.00;;;18.90;61.90;;;;;;4914410;29;20099;-53
2023/07/14 02:53:55;;;;;;;3.15;2.85;;;18.90;62.10;;;;;;4898417;29;20044;-53
2023/07/14 02:56:24;;;;;;;3.13;2.72;;;18.90;62.20;;;;;;4914350;29;20044;-50
2023/07/14 02:58:52;;;;;;;3.13;2.58;;;18.90;62.00;;;;;;4900465;29;20084;-50
2023/07/14 03:01:21;;;;;;;5.57;3.20;;;18.90;62.10;;;;;;4898597;29;20044;-49
2023/07/14 03:03:48;;;;;;;3.45;2.60;;;18.90;62.10;;;;;;4919279;29;20036;-52
2023/07/14 03:06:17;;;;;;;4.28;3.17;;;18.90;61.90;;;;;;4913853;29;20115;-51
2023/07/14 03:08:46;;;;;;;4.18;3.05;;;18.90;62.10;;;;;;4915769;29;20112;-50
2023/07/14 03:11:15;;;;;;;3.08;2.50;;;18.90;62.00;;;;;;4904579;29;20501;-51
2023/07/14 03:13:46;;;;;;;3.65;2.63;;;18.90;62.70;;;;;;4904909;29;20044;-53
2023/07/14 03:16:16;;;;;;;2.85;2.47;;;18.90;62.10;;;;;;4914710;29;20151;-50
2023/07/14 03:18:50;;;;;;;3.78;2.53;;;18.90;62.00;;;;;;4898084;29;20048;-54
2023/07/14 03:21:19;;;;;;;4.03;2.45;;;18.90;62.00;;;;;;4898849;29;20060;-52
2023/07/14 03:23:49;;;;;;;6.65;3.95;;;18.90;62.00;;;;;;4898649;29;20055;-53
2023/07/14 03:26:20;;;;;;;2.95;2.10;;;18.90;61.80;;;;;;4905642;29;20066;-49
2023/07/14 03:28:46;;;;;;;2.75;2.53;;;18.90;61.70;;;;;;4905589;29;20072;-53
2023/07/14 03:31:18;;;;;;;2.28;2.08;;;18.90;61.70;;;;;;4913718;29;20083;-52
2023/07/14 03:33:47;;;;;;;3.45;2.30;;;18.90;61.90;;;;;;4898240;29;20068;-54
2023/07/14 03:36:20;;;;;;;3.72;2.38;;;18.90;61.80;;;;;;4915921;29;20482;-53
2023/07/14 03:39:24;;;;;;;2.60;2.40;;;18.80;61.80;;;;;;4914250;29;20457;-50
2023/07/14 03:41:52;;;;;;;2.63;2.13;;;18.90;62.40;;;;;;4916228;29;20044;-53
2023/07/14 03:44:19;;;;;;;2.28;2.08;;;18.80;61.70;;;;;;4898326;29;20107;-52
2023/07/14 03:46:46;;;;;;;3.38;2.20;;;18.80;61.90;;;;;;4897065;29;20107;-53
2023/07/14 03:49:18;;;;;;;3.35;2.42;;;18.80;62.00;;;;;;4896782;29;20126;-54
2023/07/14 03:51:52;;;;;;;2.92;2.05;;;18.80;62.30;;;;;;4914215;29;20568;-53
2023/07/14 03:54:20;;;;;;;;;;;18.70;62.30;;;;;;4898256;29;20041;-52
2023/07/14 03:56:47;;;;;;;2.40;1.88;;;18.80;61.90;;;;;;4911063;29;19923;-51
2023/07/14 03:59:17;;;;;;;4.25;2.80;;;18.80;61.80;;;;;;4916796;29;20063;-50
2023/07/14 04:01:44;;;;;;;2.88;2.42;;;18.80;62.00;;;;;;4915527;29;20100;-50
2023/07/14 04:04:10;;;;;;;4.65;2.90;;;18.70;62.10;;;;;;4897692;29;20040;-49
2023/07/14 04:06:37;;;;;;;2.25;1.70;;;18.70;62.10;;;;;;4917698;29;20412;-50
2023/07/14 04:09:04;;;;;;;4.85;2.70;;;18.70;62.10;;;;;;4905739;29;20095;-53
2023/07/14 04:11:36;;;;;;;2.45;1.88;;;18.70;62.10;;;;;;4915394;29;20048;-49
2023/07/14 04:14:04;;;;;;;2.42;2.22;;;18.70;62.20;;;;;;4914932;29;20040;-52
2023/07/14 04:16:35;;;;;;;2.13;1.98;;;18.70;62.30;;;;;;4912954;29;20127;-53
2023/07/14 04:19:03;;;;;;;2.95;2.00;;;18.70;62.30;;;;;;4913869;29;20127;-53
2023/07/14 04:21:34;;;;;;;4.32;2.40;;;18.70;62.50;;;;;;4913334;29;20056;-49
2023/07/14 04:24:01;;;;;;;2.35;1.92;;;18.70;62.70;;;;;;4914593;29;20059;-49
2023/07/14 04:26:30;;;;;;;3.50;1.63;;;18.70;62.80;;;;;;4923779;29;20039;-49
2023/07/14 04:28:57;;;;;;;2.67;2.30;;;18.70;63.00;;;;;;4920381;29;20040;-52
2023/07/14 04:31:28;;;;;;;2.47;2.13;;;18.70;63.00;;;;;;4913494;29;20505;-49
2023/07/14 04:33:57;;;;;;;2.28;2.08;;;18.70;63.30;;;;;;4915476;29;20071;-55
2023/07/14 04:36:23;;;;;;;2.83;2.15;;;18.70;63.30;;;;;;4924659;29;20047;-54
2023/07/14 04:39:09;;;;;;;3.28;2.08;;;18.80;63.50;;;;;;4919887;29;20094;-54
2023/07/14 04:41:36;;;;;;;3.15;2.53;;;18.80;64.30;;;;;;4914852;29;20580;-54
2023/07/14 04:44:09;;;;;;;2.85;2.00;;;18.90;63.80;;;;;;4917350;29;20043;-50
2023/07/14 04:46:36;;;;;;;2.10;2.00;;;18.90;64.30;;;;;;4913022;29;20059;-54
2023/07/14 04:49:03;;;;;;;3.90;2.33;;;18.90;64.00;;;;;;4913330;29;20071;-50
2023/07/14 04:51:31;;;;;;;3.10;2.22;;;19.00;64.20;;;;;;4914500;29;20044;-54
2023/07/14 04:53:58;;;;;;;2.22;2.03;;;19.00;64.40;;;;;;4914571;29;20166;-54
2023/07/14 04:56:27;;;;;;;2.47;1.98;;;19.10;64.30;;;;;;4935563;29;20074;-51
2023/07/14 04:58:54;;;;;;;4.55;2.30;;;19.10;64.40;;;;;;4913790;29;20159;-54
2023/07/14 05:01:20;;;;;;;3.55;2.13;;;19.20;64.30;;;;;;4912810;29;20072;-52
2023/07/14 05:03:47;;;;;;;6.82;2.65;;;19.30;64.30;;;;;;4913768;29;20071;-50
2023/07/14 05:06:14;;;;;;;4.32;2.00;;;19.20;64.30;;;;;;4914901;29;20055;-53
2023/07/14 05:08:41;;;;;;;4.07;1.85;;;19.30;64.30;;;;;;4926442;29;20083;-50
2023/07/14 05:11:08;;;;;;;3.35;2.17;;;19.30;64.30;;;;;;4925783;29;20044;-54
2023/07/14 05:13:35;;;;;;;2.60;2.10;;;19.30;64.10;;;;;;4925988;29;20040;-51
2023/07/14 05:16:02;;;;;;;3.47;1.98;;;19.30;64.00;;;;;;4926386;29;20051;-54
2023/07/14 05:18:28;;;;;;;2.63;2.08;;;19.40;64.10;;;;;;4924451;29;20509;-54
2023/07/14 05:21:04;;;;;;;2.60;2.03;;;19.40;64.10;;;;;;4914326;29;20075;-51
2023/07/14 05:23:32;;;;;;;3.83;2.20;;;19.40;64.50;;;;;;4923056;29;20098;-53
2023/07/14 05:25:59;;;;;;;2.78;2.10;;;19.40;64.10;;;;;;4926450;29;20110;-53
2023/07/14 05:28:26;;;;;;;3.65;1.98;;;19.40;64.10;;;;;;4920393;29;20160;-50
2023/07/14 05:30:53;;;;;;;2.60;2.40;;;19.40;64.10;;;;;;4936953;29;20070;-53
2023/07/14 05:33:20;;;;;;;4.07;2.13;;;19.40;64.10;;;;;;4923194;29;20071;-53
2023/07/14 05:35:49;;;;;;;2.10;1.90;;;19.40;64.10;;;;;;4926989;29;20046;-53
2023/07/14 05:38:16;;;;;;;2.53;1.80;;;19.40;63.90;;;;;;4932228;29;20055;-53
2023/07/14 05:40:49;;;;;;;2.38;1.80;;;19.50;63.80;;;;;;4930942;29;20044;-53
2023/07/14 05:43:25;;;;;;;5.50;1.67;;;19.50;63.90;;;;;;4926383;29;20051;-52
2023/07/14 05:45:52;;;;;;;2.33;1.70;;;19.50;64.00;;;;;;4945620;29;20572;-54
2023/07/14 05:48:19;;;;;;;4.05;2.22;;;19.60;63.50;;;;;;4920913;29;20040;-54
2023/07/14 05:50:46;;;;;;;4.30;1.77;;;19.60;63.30;;;;;;4916739;29;20076;-53
2023/07/14 05:53:15;;;;;;;3.60;2.17;;;19.70;63.10;;;;;;4919192;29;20086;-53
2023/07/14 05:55:42;;;;;;;3.88;2.55;;;19.70;63.00;;;;;;4915272;29;20767;-52
2023/07/14 05:58:08;;;;;;;2.90;1.90;;;19.70;62.80;;;;;;4919173;29;20537;-50
2023/07/14 06:00:38;;;;;;;2.58;1.95;;;19.80;62.60;;;;;;4916298;29;20052;-50
2023/07/14 06:03:13;;;;;;;3.00;1.80;;;19.80;62.50;;;;;;4918344;29;20556;-50
2023/07/14 06:05:40;;;;;;;2.47;1.70;;;19.90;62.30;;;;;;4915097;29;20048;-51
2023/07/14 06:08:07;;;;;;;1.98;1.55;;;20.00;62.10;;;;;;4916101;29;20048;-52
2023/07/14 06:10:34;;;;;;;4.80;2.22;;;20.00;61.60;;;;;;4915978;29;20067;-53
2023/07/14 06:13:01;;;;;;;2.35;2.08;;;20.10;62.00;;;;;;4917807;29;20052;-52
2023/07/14 06:15:29;;;;;;;2.67;1.75;;;20.10;61.70;;;;;;4897769;29;20051;-54
2023/07/14 06:17:56;;;;;;;5.95;2.47;;;20.20;61.40;;;;;;4917803;29;20123;-53
2023/07/14 06:20:23;;;;;;;2.40;1.90;;;20.20;61.20;;;;;;4919844;29;20127;-52
2023/07/14 06:22:50;;;;;;;3.97;1.83;;;20.30;61.20;;;;;;4919458;29;20059;-53
2023/07/14 06:25:18;;;;;;;3.67;1.80;;;20.40;61.50;;;;;;4914498;29;20107;-52
2023/07/14 06:27:45;;;;;;;2.80;1.50;;;20.40;60.70;;;;;;4918300;29;20407;-49
2023/07/14 06:30:13;;;;;;;4.10;2.30;;;20.50;60.40;;;;;;4916991;29;20123;-54
2023/07/14 06:32:40;;;;;;;3.35;2.00;;;20.50;60.40;;;;;;4935413;29;20106;-53
2023/07/14 06:35:08;;;;;;;2.13;1.67;;;20.50;60.10;;;;;;4915125;29;20052;-54
2023/07/14 06:37:34;;;;;;;4.70;2.10;;;20.60;59.90;;;;;;4923949;29;20036;-53
2023/07/14 06:40:03;;;;;;;3.45;2.25;;;20.60;59.50;;;;;;4914441;29;20056;-51
2023/07/14 06:42:31;;;;;;;2.53;1.80;;;20.70;59.60;;;;;;4919176;29;20104;-51
2023/07/14 06:44:57;;;;;;;3.70;1.77;;;20.70;59.60;;;;;;4915247;29;20115;-54
2023/07/14 06:47:24;;;;;;;2.45;2.20;;;20.80;59.40;;;;;;4924388;29;20048;-50
2023/07/14 06:49:52;;;;;;;4.40;1.80;;;20.80;59.20;;;;;;4898535;29;20056;-54
2023/07/14 06:52:19;;;;;;;4.90;2.72;;;20.90;58.90;;;;;;4919855;29;20043;-53
2023/07/14 06:54:46;;;;;;;1.80;1.65;;;21.00;58.70;;;;;;4914292;29;20096;-50
2023/07/14 06:57:13;;;;;;;3.17;1.80;;;20.90;58.90;;;;;;4915346;29;20043;-53
2023/07/14 06:59:41;;;;;;;3.10;1.50;;;21.00;58.90;;;;;;4922704;29;20139;-52
2023/07/14 07:02:11;;;;;;;2.47;2.13;;;21.10;58.20;;;;;;4915458;29;20071;-55
2023/07/14 07:04:38;;;;;;;3.55;1.98;;;21.10;58.00;;;;;;4914955;29;20052;-50
2023/07/14 07:07:05;;;;;;;4.00;1.55;;;21.20;58.20;;;;;;4913646;29;20103;-50
2023/07/14 07:09:32;;;;;;;4.30;2.08;;;21.20;57.50;;;;;;4913888;29;20087;-53
2023/07/14 07:11:59;;;;;;;2.33;2.10;;;21.30;57.30;;;;;;4916956;29;20044;-54
2023/07/14 07:14:25;;;;;;;1.75;1.50;;;21.30;57.30;;;;;;4915851;29;20497;-53
2023/07/14 07:16:53;;;;;;;1.75;1.17;;;21.40;57.10;;;;;;4897498;29;20036;-54
2023/07/14 07:19:20;;;;;;;2.92;1.60;;;21.50;57.30;;;;;;4923750;29;20083;-53
2023/07/14 07:21:47;;;;;;;5.45;1.75;;;21.50;57.10;;;;;;4923547;29;20047;-53
2023/07/14 07:24:13;;;;;;;3.00;1.80;;;21.60;57.20;;;;;;4925158;29;20076;-54
2023/07/14 07:26:40;;;;;;;2.00;1.42;;;21.70;57.20;;;;;;4915429;29;20508;-50
2023/07/14 07:29:07;;;;;;;3.83;1.80;;;21.80;57.00;;;;;;4922451;29;20040;-54
2023/07/14 07:31:34;;;;;;;3.13;2.00;;;21.90;56.80;;;;;;4907568;29;20055;-53
2023/07/14 07:34:03;;;;;;;2.75;2.38;;;22.10;56.80;;;;;;4927326;29;20043;-50
2023/07/14 07:36:30;;;;;;;4.25;2.30;;;22.10;56.50;;;;;;4915208;29;20036;-50
2023/07/14 07:38:57;;;;;;;3.17;1.63;;;22.30;56.10;;;;;;4920437;29;20238;-50
2023/07/14 07:41:25;;;;;;;5.45;1.70;;;22.40;55.80;;;;;;4915824;29;20051;-51
2023/07/14 07:43:52;;;;;;;4.22;1.83;;;22.50;55.90;;;;;;4920698;29;20082;-54
2023/07/14 07:46:22;;;;;;;3.15;1.85;;;22.60;56.00;;;;;;4914037;29;20048;-50
2023/07/14 07:48:49;;;;;;;3.13;2.13;;;22.70;55.90;;;;;;4921072;29;20071;-54
2023/07/14 07:51:19;;;;;;;2.30;2.08;;;22.80;55.20;;;;;;4913730;29;20533;-51
2023/07/14 07:53:49;;;;;;;6.05;2.13;;;22.90;55.30;;;;;;4920395;29;20056;-53
2023/07/14 07:56:18;;;;;;;3.67;2.03;;;23.00;54.80;;;;;;4913429;29;20079;-52
2023/07/14 07:58:45;;;;;;;3.72;2.00;;;23.00;54.40;;;;;;4916968;29;20072;-52
2023/07/14 08:01:20;;;;;;;4.85;2.00;;;23.10;54.40;;;;;;4913834;29;20059;-50
2023/07/14 08:03:47;;;;;;;2.38;1.80;;;23.20;54.30;;;;;;4919294;29;20059;-51
2023/07/14 08:06:14;;;;;;;3.05;1.95;;;23.30;54.60;;;;;;4913565;29;20040;-54
2023/07/14 08:08:44;;;;;;;3.65;1.83;;;23.40;54.60;;;;;;4915035;29;20025;-52
2023/07/14 08:11:12;;;;;;;3.45;1.90;;;23.50;54.00;;;;;;4915134;29;20119;-53
2023/07/14 08:13:39;;;;;;;2.70;1.67;;;23.60;53.70;;;;;;4920714;29;20681;-50
2023/07/14 08:16:07;;;;;;;4.25;1.80;;;23.70;53.60;;;;;;4930102;29;20040;-53
2023/07/14 08:18:34;;;;;;;4.50;1.60;;;23.80;53.50;;;;;;4916780;29;20127;-50
2023/07/14 08:21:01;;;;;;;3.83;2.08;;;23.80;53.70;;;;;;4916582;29;20047;-52
2023/07/14 08:23:28;;;;;;;4.00;2.03;;;23.80;53.40;;;;;;4917981;29;20112;-53
2023/07/14 08:26:00;;;;;;;2.88;1.55;;;23.90;53.20;;;;;;4913245;29;20122;-50
2023/07/14 08:28:28;;;;;;;3.15;2.10;;;24.00;52.40;;;;;;4916121;29;20044;-52
2023/07/14 08:30:59;;;;;;;5.53;2.20;;;24.10;52.90;;;;;;4920511;29;20087;-54
2023/07/14 08:33:26;;;;;;;4.05;1.40;;;24.10;52.60;;;;;;4918019;29;20528;-52
2023/07/14 08:36:00;;;;;;;6.03;2.45;;;24.20;53.10;;;;;;4912676;29;20051;-53
2023/07/14 08:38:32;;;;;;;1.55;1.45;;;24.30;52.80;;;;;;4914067;29;20564;-51
2023/07/14 08:41:23;;;;;;;1.98;1.40;;;24.40;52.20;;;;;;4914830;29;20052;-50
2023/07/14 08:44:18;;;;;;;2.40;1.27;;;24.50;51.90;;;;;;4917437;29;20036;-50
2023/07/14 08:47:15;;;;;;;5.97;1.70;;;24.60;51.90;;;;;;4913127;29;20048;-52
2023/07/14 08:50:11;;;;;;;1.80;1.70;;;24.60;51.80;;;;;;4918556;29;20047;-50
2023/07/14 08:52:39;;;;;;;2.08;1.50;;;24.70;52.00;;;;;;4917432;29;20036;-52
2023/07/14 08:55:20;;;;;;;2.03;1.42;;;24.80;51.50;;;;;;4918967;29;20072;-51
2023/07/14 08:57:59;;;;;;;2.72;1.80;;;24.80;51.00;;;;;;4897719;29;20386;-54
2023/07/14 09:00:58;;;;;;;2.88;1.45;;;24.90;51.00;;;;;;4913085;29;20045;-53
2023/07/14 09:03:42;;;;;;;3.85;1.63;;;24.90;50.40;;;;;;4920143;29;20099;-54
2023/07/14 09:06:24;;;;;;;2.35;1.50;;;24.90;49.70;;;;;;4922729;29;20047;-54
2023/07/14 09:08:53;;;;;;;2.67;1.70;;;24.90;49.50;;;;;;4928444;29;20036;-51
2023/07/14 09:11:51;;;;;;;1.67;1.58;;;24.90;50.50;;;;;;4930944;29;20100;-54
2023/07/14 09:14:41;;;;;;;3.70;1.67;;;24.90;50.10;;;;;;4924344;29;20039;-51
2023/07/14 09:17:46;;;;;;;2.38;1.75;;;24.90;49.60;;;;;;4905228;29;20052;-52
2023/07/14 09:20:27;;;;;;;5.03;1.70;;;24.90;49.50;;;;;;4927137;29;20059;-53
2023/07/14 09:23:21;;;;;;;3.00;1.48;;;24.90;49.00;;;;;;4916661;29;20402;-54
2023/07/14 09:26:26;;;;;;;1.95;1.50;;;25.00;49.30;;;;;;4916225;29;20094;-52
2023/07/14 09:28:56;;;;;;;2.10;1.52;;;25.00;48.70;;;;;;4919860;29;20090;-50
2023/07/14 09:31:54;;;;;;;1.35;1.17;;;25.00;49.40;;;;;;4915635;29;20075;-52
2023/07/14 09:34:43;;;;;;;2.63;1.98;;;25.10;48.70;;;;;;4916763;29;20063;-53
2023/07/14 09:37:20;;;;;;;2.58;1.65;;;25.10;48.50;;;;;;4916306;29;20070;-51
2023/07/14 09:39:51;;;;;;;2.63;1.85;;;25.10;47.50;;;;;;4918874;29;20449;-53
2023/07/14 09:42:32;;;;;;;1.73;1.63;;;25.10;48.00;;;;;;4918642;29;20100;-50
2023/07/14 09:45:17;;;;;;;2.72;1.40;;;25.10;48.50;;;;;;4916330;29;20351;-53
2023/07/14 09:47:46;;;;;;;2.55;1.70;;;25.20;48.10;;;;;;4914184;29;20052;-53
2023/07/14 09:50:16;;;;;;;2.72;1.70;;;25.20;47.70;;;;;;4927995;29;20123;-53
2023/07/14 09:52:57;;;;;;;1.60;1.50;;;25.30;47.50;;;;;;4916834;29;20048;-54
2023/07/14 09:55:25;;;;;;;3.28;1.75;;;25.40;47.50;;;;;;4925679;29;20048;-50
2023/07/14 09:57:55;;;;;;;2.22;1.65;;;25.40;47.50;;;;;;4917080;29;20505;-53
2023/07/14 10:00:40;;;;;;;2.08;1.50;;;25.60;47.40;;;;;;4917093;29;20080;-50
2023/07/14 10:03:11;;;;;;;2.72;2.03;;;25.60;46.30;;;;;;4917057;29;20043;-55
2023/07/14 10:05:44;;;;;;;2.58;1.95;;;25.70;46.10;;;;;;4921521;29;20389;-53
2023/07/14 10:08:28;;;;;;;2.70;1.48;;;25.70;46.70;;;;;;4919981;29;20047;-54
2023/07/14 10:10:58;;;;;;;4.07;2.00;;;25.80;46.10;;;;;;4917522;29;20055;-51
2023/07/14 10:13:27;;;;;;;3.92;1.73;;;25.90;46.30;;;;;;4915321;29;20064;-51
2023/07/14 10:16:00;;;;;;;4.88;1.65;;;25.90;45.50;;;;;;4920314;29;20286;-52
2023/07/14 10:18:27;;;;;;;3.50;1.75;;;26.00;46.10;;;;;;4916211;29;20378;-54
2023/07/14 10:21:11;;;;;;;3.70;1.90;;;26.00;45.80;;;;;;4927043;29;20122;-54
2023/07/14 10:23:38;;;;;;;2.42;2.08;;;26.10;46.10;;;;;;4920258;29;20044;-54
2023/07/14 10:26:07;;;;;;;4.38;2.35;;;26.20;46.60;;;;;;4918824;29;20119;-54
2023/07/14 10:28:35;;;;;;;2.53;1.77;;;26.30;46.60;;;;;;4918008;29;20051;-53
2023/07/14 10:31:24;;;;;;;2.83;1.95;;;26.50;45.90;;;;;;4925002;29;20110;-51
2023/07/14 10:34:36;;;;;;;4.75;1.88;;;26.60;44.20;;;;;;4936335;29;20066;-52
2023/07/14 10:37:17;;;;;;;2.15;1.73;;;26.80;44.60;;;;;;4916853;29;20048;-55
2023/07/14 10:39:49;;;;;;;3.88;1.67;;;26.90;43.50;;;;;;4920000;29;20051;-54
2023/07/14 10:42:20;;;;;;;2.83;1.73;;;27.00;43.80;;;;;;4920071;29;20045;-53
2023/07/14 10:44:48;;;;;;;1.83;1.73;;;27.10;43.20;;;;;;4921306;29;20040;-54
2023/07/14 10:47:21;;;;;;;1.50;1.40;;;27.10;43.50;;;;;;4923368;29;20036;-53
2023/07/14 10:50:32;;;;;;;2.83;1.92;;;27.20;43.10;;;;;;4915087;29;20036;-50
2023/07/14 10:53:13;;;;;;;3.78;1.65;;;27.40;42.80;;;;;;4883573;29;20055;-54
2023/07/14 10:55:42;;;;;;;2.05;1.77;;;27.50;42.50;;;;;;4923972;29;20079;-53
2023/07/14 10:58:19;;;;;;;2.25;1.70;;;27.50;42.00;;;;;;4926273;29;20087;-54
2023/07/14 11:00:56;;;;;;;3.30;1.90;;;27.60;42.00;;;;;;4929631;29;20048;-51
2023/07/14 11:03:37;;;;;;;1.90;1.45;;;27.70;41.40;;;;;;4927967;29;20040;-50
2023/07/14 11:06:21;;;;;;;3.93;2.67;;;27.70;40.90;;;;;;4925096;29;20050;-52
2023/07/14 11:08:57;;;;;;;2.03;1.73;;;27.80;42.20;;;;;;4925834;29;20557;-53
2023/07/14 11:11:43;;;;;;;3.70;1.80;;;27.90;41.00;;;;;;4919474;29;20048;-54
2023/07/14 11:14:28;;;;;;;2.03;1.70;;;28.10;41.40;;;;;;4925335;29;20086;-53
2023/07/14 11:17:19;;;;;;;2.10;1.90;;;28.10;41.10;;;;;;4931152;29;20051;-52
2023/07/14 11:19:55;;;;;;;2.03;1.55;;;28.30;40.60;;;;;;4919243;29;20091;-54
2023/07/14 11:22:36;;;;;;;4.15;2.15;;;28.30;39.70;;;;;;4932906;29;20067;-54
2023/07/14 11:25:18;;;;;;;2.40;1.60;;;28.30;41.00;;;;;;4926712;29;20062;-54
2023/07/14 11:27:57;;;;;;;3.33;2.20;;;28.40;40.10;;;;;;4916143;29;20052;-50
2023/07/14 11:30:46;;;;;;;4.70;1.77;;;28.50;40.40;;;;;;4920368;29;20075;-54
2023/07/14 11:33:16;;;;;;;2.03;1.77;;;28.60;40.20;;;;;;4925031;29;20039;-54
2023/07/14 11:35:58;;;;;;;3.42;1.80;;;28.60;41.20;;;;;;4919824;29;20100;-53
2023/07/14 11:38:42;;;;;;;;;;;28.80;40.00;;;;;;4916298;29;20420;-53
2023/07/14 11:41:10;;;;;;;2.30;1.92;;;29.00;41.80;;;;;;4919412;29;19923;-54
2023/07/14 11:43:38;;;;;;;3.80;1.63;;;29.10;40.70;;;;;;4915640;29;20079;-53
2023/07/14 11:46:09;;;;;;;1.95;1.50;;;29.20;40.50;;;;;;4922066;29;20476;-50
2023/07/14 11:48:38;;;;;;;3.10;1.80;;;29.40;40.30;;;;;;4921779;29;20063;-55
2023/07/14 11:51:17;;;;;;;2.03;1.85;;;29.50;40.30;;;;;;4920673;29;20707;-51
2023/07/14 11:54:05;;;;;;;4.05;2.00;;;29.70;38.30;;;;;;4918324;29;20043;-52
2023/07/14 11:56:38;;;;;;;3.10;2.40;;;29.90;39.00;;;;;;4900257;29;20691;-54
2023/07/14 11:59:27;;;;;;;2.38;1.50;;;30.00;38.80;;;;;;4915117;29;20546;-51
2023/07/14 12:01:56;;;;;;;2.83;1.65;;;30.20;38.40;;;;;;4922452;29;20072;-54
2023/07/14 12:04:31;;;;;;;4.00;2.25;;;30.20;37.70;;;;;;4922234;29;20052;-54
2023/07/14 12:07:34;;;;;;;2.47;2.20;;;30.30;37.30;;;;;;4914482;29;20044;-52
2023/07/14 12:10:08;;;;;;;2.53;1.73;;;30.40;38.00;;;;;;4878211;29;20050;-54
2023/07/14 12:12:38;;;;;;;2.97;2.10;;;30.40;37.90;;;;;;4918486;29;20048;-54
2023/07/14 12:16:00;;;;;;;2.15;1.65;;;30.50;38.10;;;;;;4914331;29;20040;-54
2023/07/14 12:18:32;;;;;;;4.07;1.80;;;30.50;38.00;;;;;;4871737;29;20151;-54
2023/07/14 12:21:14;;;;;;;3.30;2.17;;;30.70;37.60;;;;;;4906969;29;20056;-54
2023/07/14 12:23:43;;;;;;;3.03;2.10;;;30.90;37.30;;;;;;4920391;29;20080;-53
2023/07/14 12:26:36;;;;;;;3.78;2.47;;;30.90;36.60;;;;;;4928366;29;20556;-53
2023/07/14 12:29:14;;;;;;;3.67;1.65;;;31.00;36.20;;;;;;4901831;29;20138;-51
2023/07/14 12:31:41;;;;;;;2.33;2.00;;;31.10;36.10;;;;;;4918699;29;20058;-50
2023/07/14 12:34:15;;;;;;;4.82;2.53;;;31.10;36.40;;;;;;4917198;29;20044;-53
2023/07/14 12:36:42;;;;;;;4.70;2.00;;;31.20;36.20;;;;;;4914109;29;20107;-55
2023/07/14 12:39:12;;;;;;;3.17;2.20;;;31.20;35.90;;;;;;4924581;29;20043;-52
2023/07/14 12:41:43;;;;;;;4.47;2.55;;;31.20;36.40;;;;;;4921290;29;20055;-51
2023/07/14 12:44:38;;;;;;;2.42;2.03;;;31.40;35.40;;;;;;4924092;29;20452;-52
2023/07/14 12:47:11;;;;;;;3.42;2.40;;;31.50;34.60;;;;;;4922886;29;20048;-55
2023/07/14 12:49:42;;;;;;;3.22;2.50;;;31.50;35.50;;;;;;4913950;29;20115;-54
2023/07/14 12:52:20;;;;;;;2.97;2.45;;;31.70;34.60;;;;;;4928807;29;20043;-54
2023/07/14 12:54:48;;;;;;;2.75;2.13;;;31.80;34.70;;;;;;4913772;29;20036;-54
2023/07/14 12:57:17;;;;;;;5.22;2.53;;;31.80;34.50;;;;;;4917847;29;20122;-54
2023/07/14 12:59:51;;;;;;;2.22;2.03;;;31.80;34.70;;;;;;4918782;29;20047;-52
2023/07/14 13:02:19;;;;;;;4.43;2.10;;;31.80;34.00;;;;;;4934463;29;20048;-55
2023/07/14 13:04:46;;;;;;;4.88;2.20;;;31.80;34.30;;;;;;4910077;29;20075;-54
2023/07/14 13:07:20;;;;;;;1.77;1.65;;;31.80;34.30;;;;;;4921852;29;20580;-51
2023/07/14 13:10:00;;;;;;;4.85;2.10;;;31.80;33.40;;;;;;4924948;29;20509;-54
2023/07/14 13:12:27;;;;;;;2.65;2.42;;;31.90;36.00;;;;;;4924828;29;20458;-55
2023/07/14 13:14:56;;;;;;;3.35;3.00;;;31.90;34.40;;;;;;4929334;29;20044;-54
2023/07/14 13:17:25;;;;;;;2.05;1.52;;;32.00;33.70;;;;;;4907898;29;20052;-52
2023/07/14 13:19:53;;;;;;;4.03;1.92;;;32.00;33.80;;;;;;4926071;29;20051;-55